sensor_id;sensor_type;location;lat;lon;timestamp;P1;durP1;ratioP1;P2;durP2;ratioP2
10281;SDS011;5186;59.472;18.048;2022-09-03T00:00:45;2.30;;;1.70;;
10281;SDS011;5186;59.472;18.048;2022-09-03T00:08:47;1.83;;;1.70;;
10281;SDS011;5186;59.472;18.048;2022-09-03T00:11:26;3.23;;;1.80;;
10281;SDS011;5186;59.472;18.048;2022-09-03T00:16:49;2.27;;;1.70;;
10281;SDS011;5186;59.472;18.048;2022-09-03T00:19:21;2.40;;;1.93;;
10281;SDS011;5186;59.472;18.048;2022-09-03T00:22:02;2.00;;;1.50;;
10281;SDS011;5186;59.472;18.048;2022-09-03T00:24:35;2.87;;;1.60;;
10281;SDS011;5186;59.472;18.048;2022-09-03T00:27:05;2.07;;;1.57;;
10281;SDS011;5186;59.472;18.048;2022-09-03T00:29:38;1.60;;;1.50;;
10281;SDS011;5186;59.472;18.048;2022-09-03T00:32:10;2.30;;;1.80;;
10281;SDS011;5186;59.472;18.048;2022-09-03T00:35:13;3.63;;;1.60;;
10281;SDS011;5186;59.472;18.048;2022-09-03T00:37:47;2.03;;;1.70;;
10281;SDS011;5186;59.472;18.048;2022-09-03T00:40:17;1.83;;;1.63;;
10281;SDS011;5186;59.472;18.048;2022-09-03T00:45:32;2.70;;;2.47;;
10281;SDS011;5186;59.472;18.048;2022-09-03T00:48:24;2.27;;;1.90;;
10281;SDS011;5186;59.472;18.048;2022-09-03T00:51:17;1.63;;;1.43;;
10281;SDS011;5186;59.472;18.048;2022-09-03T00:53:59;2.90;;;1.63;;
10281;SDS011;5186;59.472;18.048;2022-09-03T00:59:45;2.30;;;2.10;;
10281;SDS011;5186;59.472;18.048;2022-09-03T01:05:06;2.17;;;1.77;;
10281;SDS011;5186;59.472;18.048;2022-09-03T01:07:39;2.40;;;1.80;;
10281;SDS011;5186;59.472;18.048;2022-09-03T01:10:29;3.23;;;1.83;;
10281;SDS011;5186;59.472;18.048;2022-09-03T01:18:34;3.53;;;1.80;;
10281;SDS011;5186;59.472;18.048;2022-09-03T01:46:04;4.50;;;1.90;;
10281;SDS011;5186;59.472;18.048;2022-09-03T01:48:42;1.73;;;1.63;;
10281;SDS011;5186;59.472;18.048;2022-09-03T01:51:28;3.87;;;1.77;;
10281;SDS011;5186;59.472;18.048;2022-09-03T01:54:19;2.43;;;1.80;;
10281;SDS011;5186;59.472;18.048;2022-09-03T02:00:09;2.87;;;2.13;;
10281;SDS011;5186;59.472;18.048;2022-09-03T02:02:44;4.33;;;2.30;;
10281;SDS011;5186;59.472;18.048;2022-09-03T02:05:13;2.20;;;1.70;;
10281;SDS011;5186;59.472;18.048;2022-09-03T02:07:46;3.20;;;2.20;;
10281;SDS011;5186;59.472;18.048;2022-09-03T02:10:14;4.17;;;1.97;;
10281;SDS011;5186;59.472;18.048;2022-09-03T02:12:44;2.60;;;1.80;;
10281;SDS011;5186;59.472;18.048;2022-09-03T02:15:14;1.87;;;1.77;;
10281;SDS011;5186;59.472;18.048;2022-09-03T02:17:43;2.27;;;2.00;;
10281;SDS011;5186;59.472;18.048;2022-09-03T02:20:12;2.43;;;1.57;;
10281;SDS011;5186;59.472;18.048;2022-09-03T02:22:44;3.17;;;1.80;;
10281;SDS011;5186;59.472;18.048;2022-09-03T02:25:10;2.93;;;1.57;;
10281;SDS011;5186;59.472;18.048;2022-09-03T02:27:39;2.83;;;1.50;;
10281;SDS011;5186;59.472;18.048;2022-09-03T02:30:05;2.03;;;1.73;;
10281;SDS011;5186;59.472;18.048;2022-09-03T02:32:32;1.83;;;1.67;;
10281;SDS011;5186;59.472;18.048;2022-09-03T02:34:57;1.83;;;1.57;;
10281;SDS011;5186;59.472;18.048;2022-09-03T02:37:23;1.63;;;1.50;;
10281;SDS011;5186;59.472;18.048;2022-09-03T02:39:49;2.13;;;1.67;;
10281;SDS011;5186;59.472;18.048;2022-09-03T02:42:18;2.27;;;1.90;;
10281;SDS011;5186;59.472;18.048;2022-09-03T02:44:46;3.50;;;1.77;;
10281;SDS011;5186;59.472;18.048;2022-09-03T02:47:15;2.90;;;1.60;;
10281;SDS011;5186;59.472;18.048;2022-09-03T02:49:44;2.03;;;1.53;;
10281;SDS011;5186;59.472;18.048;2022-09-03T02:52:11;2.00;;;1.70;;
10281;SDS011;5186;59.472;18.048;2022-09-03T02:54:38;1.70;;;1.60;;
10281;SDS011;5186;59.472;18.048;2022-09-03T02:57:05;2.80;;;1.70;;
10281;SDS011;5186;59.472;18.048;2022-09-03T02:59:31;2.97;;;1.77;;
10281;SDS011;5186;59.472;18.048;2022-09-03T03:01:57;1.67;;;1.57;;
10281;SDS011;5186;59.472;18.048;2022-09-03T03:04:23;3.53;;;1.70;;
10281;SDS011;5186;59.472;18.048;2022-09-03T03:06:49;2.10;;;1.90;;
10281;SDS011;5186;59.472;18.048;2022-09-03T03:09:15;1.67;;;1.57;;
10281;SDS011;5186;59.472;18.048;2022-09-03T03:11:41;1.90;;;1.60;;
10281;SDS011;5186;59.472;18.048;2022-09-03T03:14:07;1.77;;;1.57;;
10281;SDS011;5186;59.472;18.048;2022-09-03T03:16:33;1.60;;;1.50;;
10281;SDS011;5186;59.472;18.048;2022-09-03T03:18:59;4.00;;;1.43;;
10281;SDS011;5186;59.472;18.048;2022-09-03T03:21:25;1.97;;;1.77;;
10281;SDS011;5186;59.472;18.048;2022-09-03T03:23:50;1.87;;;1.40;;
10281;SDS011;5186;59.472;18.048;2022-09-03T03:26:17;1.97;;;1.70;;
10281;SDS011;5186;59.472;18.048;2022-09-03T03:28:44;2.40;;;1.40;;
10281;SDS011;5186;59.472;18.048;2022-09-03T03:31:15;1.67;;;1.47;;
10281;SDS011;5186;59.472;18.048;2022-09-03T03:33:42;1.87;;;1.40;;
10281;SDS011;5186;59.472;18.048;2022-09-03T03:36:09;2.00;;;1.47;;
10281;SDS011;5186;59.472;18.048;2022-09-03T03:38:36;1.53;;;1.40;;
10281;SDS011;5186;59.472;18.048;2022-09-03T03:41:14;3.50;;;1.70;;
10281;SDS011;5186;59.472;18.048;2022-09-03T03:43:41;1.63;;;1.50;;
10281;SDS011;5186;59.472;18.048;2022-09-03T03:46:07;1.80;;;1.70;;
10281;SDS011;5186;59.472;18.048;2022-09-03T03:48:34;1.40;;;1.30;;
10281;SDS011;5186;59.472;18.048;2022-09-03T03:51:00;2.10;;;1.60;;
10281;SDS011;5186;59.472;18.048;2022-09-03T03:53:32;2.17;;;1.47;;
10281;SDS011;5186;59.472;18.048;2022-09-03T03:56:00;1.50;;;1.40;;
10281;SDS011;5186;59.472;18.048;2022-09-03T03:58:28;1.77;;;1.40;;
10281;SDS011;5186;59.472;18.048;2022-09-03T04:01:02;1.50;;;1.40;;
10281;SDS011;5186;59.472;18.048;2022-09-03T04:03:32;1.23;;;1.13;;
10281;SDS011;5186;59.472;18.048;2022-09-03T04:05:58;1.83;;;1.30;;
10281;SDS011;5186;59.472;18.048;2022-09-03T04:08:27;1.43;;;1.33;;
10281;SDS011;5186;59.472;18.048;2022-09-03T04:10:57;1.70;;;1.40;;
10281;SDS011;5186;59.472;18.048;2022-09-03T04:13:27;1.43;;;1.33;;
10281;SDS011;5186;59.472;18.048;2022-09-03T04:16:06;2.27;;;1.30;;
10281;SDS011;5186;59.472;18.048;2022-09-03T04:18:37;2.50;;;1.40;;
10281;SDS011;5186;59.472;18.048;2022-09-03T04:21:10;2.07;;;1.70;;
10281;SDS011;5186;59.472;18.048;2022-09-03T04:23:38;1.60;;;1.50;;
10281;SDS011;5186;59.472;18.048;2022-09-03T04:26:10;1.57;;;1.47;;
10281;SDS011;5186;59.472;18.048;2022-09-03T04:28:37;1.50;;;1.40;;
10281;SDS011;5186;59.472;18.048;2022-09-03T04:31:05;3.20;;;1.60;;
10281;SDS011;5186;59.472;18.048;2022-09-03T04:33:32;2.03;;;1.33;;
10281;SDS011;5186;59.472;18.048;2022-09-03T04:36:05;2.07;;;1.40;;
10281;SDS011;5186;59.472;18.048;2022-09-03T04:38:31;1.50;;;1.40;;
10281;SDS011;5186;59.472;18.048;2022-09-03T04:40:58;1.70;;;1.40;;
10281;SDS011;5186;59.472;18.048;2022-09-03T04:43:24;1.73;;;1.53;;
10281;SDS011;5186;59.472;18.048;2022-09-03T04:45:51;1.60;;;1.30;;
10281;SDS011;5186;59.472;18.048;2022-09-03T04:48:20;1.73;;;1.63;;
10281;SDS011;5186;59.472;18.048;2022-09-03T04:50:47;2.27;;;1.40;;
10281;SDS011;5186;59.472;18.048;2022-09-03T04:53:12;1.30;;;1.20;;
10281;SDS011;5186;59.472;18.048;2022-09-03T04:55:38;1.20;;;1.10;;
10281;SDS011;5186;59.472;18.048;2022-09-03T04:58:04;2.67;;;1.40;;
10281;SDS011;5186;59.472;18.048;2022-09-03T05:00:32;1.50;;;1.40;;
10281;SDS011;5186;59.472;18.048;2022-09-03T05:03:00;0.90;;;0.90;;
10281;SDS011;5186;59.472;18.048;2022-09-03T05:05:26;2.30;;;1.43;;
10281;SDS011;5186;59.472;18.048;2022-09-03T05:07:52;1.53;;;1.43;;
10281;SDS011;5186;59.472;18.048;2022-09-03T05:10:17;1.60;;;1.50;;
10281;SDS011;5186;59.472;18.048;2022-09-03T05:12:56;1.50;;;1.33;;
10281;SDS011;5186;59.472;18.048;2022-09-03T05:15:24;1.53;;;1.40;;
10281;SDS011;5186;59.472;18.048;2022-09-03T05:17:54;1.40;;;1.30;;
10281;SDS011;5186;59.472;18.048;2022-09-03T05:20:20;1.43;;;1.30;;
10281;SDS011;5186;59.472;18.048;2022-09-03T05:22:46;1.53;;;1.40;;
10281;SDS011;5186;59.472;18.048;2022-09-03T05:25:12;1.67;;;1.53;;
10281;SDS011;5186;59.472;18.048;2022-09-03T05:27:37;3.63;;;2.03;;
10281;SDS011;5186;59.472;18.048;2022-09-03T05:30:03;1.80;;;1.70;;
10281;SDS011;5186;59.472;18.048;2022-09-03T05:32:29;1.70;;;1.50;;
10281;SDS011;5186;59.472;18.048;2022-09-03T05:34:55;1.87;;;1.67;;
10281;SDS011;5186;59.472;18.048;2022-09-03T05:37:21;1.60;;;1.50;;
10281;SDS011;5186;59.472;18.048;2022-09-03T05:39:47;1.90;;;1.57;;
10281;SDS011;5186;59.472;18.048;2022-09-03T05:42:13;1.83;;;1.50;;
10281;SDS011;5186;59.472;18.048;2022-09-03T05:44:39;2.20;;;1.57;;
10281;SDS011;5186;59.472;18.048;2022-09-03T05:47:04;1.70;;;1.60;;
10281;SDS011;5186;59.472;18.048;2022-09-03T05:49:30;1.70;;;1.60;;
10281;SDS011;5186;59.472;18.048;2022-09-03T05:51:56;1.63;;;1.53;;
10281;SDS011;5186;59.472;18.048;2022-09-03T05:54:22;3.33;;;1.30;;
10281;SDS011;5186;59.472;18.048;2022-09-03T05:56:47;1.50;;;1.40;;
10281;SDS011;5186;59.472;18.048;2022-09-03T05:59:13;2.40;;;1.40;;
10281;SDS011;5186;59.472;18.048;2022-09-03T06:01:40;1.40;;;1.30;;
10281;SDS011;5186;59.472;18.048;2022-09-03T06:04:11;1.47;;;1.37;;
10281;SDS011;5186;59.472;18.048;2022-09-03T06:06:38;2.57;;;1.77;;
10281;SDS011;5186;59.472;18.048;2022-09-03T06:09:06;2.53;;;1.67;;
10281;SDS011;5186;59.472;18.048;2022-09-03T06:11:35;1.50;;;1.40;;
10281;SDS011;5186;59.472;18.048;2022-09-03T06:14:03;1.60;;;1.43;;
10281;SDS011;5186;59.472;18.048;2022-09-03T06:16:30;1.93;;;1.40;;
10281;SDS011;5186;59.472;18.048;2022-09-03T06:19:00;1.60;;;1.50;;
10281;SDS011;5186;59.472;18.048;2022-09-03T06:21:27;1.40;;;1.30;;
10281;SDS011;5186;59.472;18.048;2022-09-03T06:23:53;2.43;;;1.30;;
10281;SDS011;5186;59.472;18.048;2022-09-03T06:26:23;1.77;;;1.40;;
10281;SDS011;5186;59.472;18.048;2022-09-03T06:28:49;1.30;;;1.20;;
10281;SDS011;5186;59.472;18.048;2022-09-03T06:31:19;1.73;;;1.60;;
10281;SDS011;5186;59.472;18.048;2022-09-03T06:33:45;1.63;;;1.50;;
10281;SDS011;5186;59.472;18.048;2022-09-03T06:36:12;1.50;;;1.40;;
10281;SDS011;5186;59.472;18.048;2022-09-03T06:38:43;2.90;;;1.80;;
10281;SDS011;5186;59.472;18.048;2022-09-03T06:41:10;2.40;;;1.50;;
10281;SDS011;5186;59.472;18.048;2022-09-03T06:43:41;2.63;;;1.60;;
10281;SDS011;5186;59.472;18.048;2022-09-03T06:46:09;1.60;;;1.50;;
10281;SDS011;5186;59.472;18.048;2022-09-03T06:48:36;1.67;;;1.47;;
10281;SDS011;5186;59.472;18.048;2022-09-03T06:51:06;2.17;;;1.47;;
10281;SDS011;5186;59.472;18.048;2022-09-03T06:53:34;2.83;;;1.37;;
10281;SDS011;5186;59.472;18.048;2022-09-03T06:56:03;1.77;;;1.30;;
10281;SDS011;5186;59.472;18.048;2022-09-03T06:58:34;1.57;;;1.40;;
10281;SDS011;5186;59.472;18.048;2022-09-03T07:01:23;2.27;;;1.50;;
10281;SDS011;5186;59.472;18.048;2022-09-03T07:03:53;1.17;;;1.10;;
10281;SDS011;5186;59.472;18.048;2022-09-03T07:06:20;2.13;;;1.23;;
10281;SDS011;5186;59.472;18.048;2022-09-03T07:08:47;1.27;;;1.17;;
10281;SDS011;5186;59.472;18.048;2022-09-03T07:11:18;1.90;;;1.37;;
10281;SDS011;5186;59.472;18.048;2022-09-03T07:13:47;1.30;;;1.20;;
10281;SDS011;5186;59.472;18.048;2022-09-03T07:16:20;1.27;;;1.17;;
10281;SDS011;5186;59.472;18.048;2022-09-03T07:18:48;2.57;;;1.20;;
10281;SDS011;5186;59.472;18.048;2022-09-03T07:21:16;1.93;;;1.30;;
10281;SDS011;5186;59.472;18.048;2022-09-03T07:23:43;1.37;;;1.10;;
10281;SDS011;5186;59.472;18.048;2022-09-03T07:26:10;1.30;;;1.20;;
10281;SDS011;5186;59.472;18.048;2022-09-03T07:28:41;2.17;;;1.07;;
10281;SDS011;5186;59.472;18.048;2022-09-03T07:31:11;1.37;;;1.10;;
10281;SDS011;5186;59.472;18.048;2022-09-03T07:33:40;3.07;;;1.40;;
10281;SDS011;5186;59.472;18.048;2022-09-03T07:36:07;1.50;;;1.00;;
10281;SDS011;5186;59.472;18.048;2022-09-03T07:38:35;1.10;;;1.00;;
10281;SDS011;5186;59.472;18.048;2022-09-03T07:41:02;1.43;;;1.20;;
10281;SDS011;5186;59.472;18.048;2022-09-03T07:43:32;1.43;;;1.00;;
10281;SDS011;5186;59.472;18.048;2022-09-03T07:46:07;1.00;;;0.90;;
10281;SDS011;5186;59.472;18.048;2022-09-03T07:48:37;1.87;;;0.80;;
10281;SDS011;5186;59.472;18.048;2022-09-03T07:51:06;2.00;;;0.87;;
10281;SDS011;5186;59.472;18.048;2022-09-03T07:53:32;0.87;;;0.70;;
10281;SDS011;5186;59.472;18.048;2022-09-03T07:56:05;1.07;;;0.50;;
10281;SDS011;5186;59.472;18.048;2022-09-03T07:58:32;1.73;;;0.60;;
10281;SDS011;5186;59.472;18.048;2022-09-03T08:01:03;0.77;;;0.73;;
10281;SDS011;5186;59.472;18.048;2022-09-03T08:03:33;1.70;;;0.60;;
10281;SDS011;5186;59.472;18.048;2022-09-03T08:06:04;2.00;;;0.63;;
10281;SDS011;5186;59.472;18.048;2022-09-03T08:08:32;0.60;;;0.60;;
10281;SDS011;5186;59.472;18.048;2022-09-03T08:11:13;0.70;;;0.53;;
10281;SDS011;5186;59.472;18.048;2022-09-03T08:13:44;1.40;;;0.47;;
10281;SDS011;5186;59.472;18.048;2022-09-03T08:16:13;0.97;;;0.70;;
10281;SDS011;5186;59.472;18.048;2022-09-03T08:18:42;0.77;;;0.60;;
10281;SDS011;5186;59.472;18.048;2022-09-03T08:21:14;1.97;;;0.70;;
10281;SDS011;5186;59.472;18.048;2022-09-03T08:23:44;0.73;;;0.70;;
10281;SDS011;5186;59.472;18.048;2022-09-03T08:26:12;0.77;;;0.77;;
10281;SDS011;5186;59.472;18.048;2022-09-03T08:28:38;1.30;;;1.03;;
10281;SDS011;5186;59.472;18.048;2022-09-03T08:33:52;1.10;;;0.90;;
10281;SDS011;5186;59.472;18.048;2022-09-03T08:38:47;2.83;;;1.00;;
10281;SDS011;5186;59.472;18.048;2022-09-03T08:41:19;2.10;;;1.00;;
10281;SDS011;5186;59.472;18.048;2022-09-03T08:44:13;1.10;;;1.00;;
10281;SDS011;5186;59.472;18.048;2022-09-03T08:50:03;1.17;;;0.70;;
10281;SDS011;5186;59.472;18.048;2022-09-03T08:58:01;0.83;;;0.40;;
10281;SDS011;5186;59.472;18.048;2022-09-03T09:00:54;1.07;;;0.47;;
10281;SDS011;5186;59.472;18.048;2022-09-03T09:06:17;0.83;;;0.40;;
10281;SDS011;5186;59.472;18.048;2022-09-03T09:22:53;0.53;;;0.40;;
10281;SDS011;5186;59.472;18.048;2022-09-03T09:25:33;0.80;;;0.60;;
10281;SDS011;5186;59.472;18.048;2022-09-03T09:28:17;0.73;;;0.40;;
10281;SDS011;5186;59.472;18.048;2022-09-03T09:30:44;0.67;;;0.40;;
10281;SDS011;5186;59.472;18.048;2022-09-03T09:33:11;0.40;;;0.40;;
10281;SDS011;5186;59.472;18.048;2022-09-03T09:35:38;0.30;;;0.30;;
10281;SDS011;5186;59.472;18.048;2022-09-03T09:38:06;0.17;;;0.17;;
10281;SDS011;5186;59.472;18.048;2022-09-03T09:43:18;0.40;;;0.40;;
10281;SDS011;5186;59.472;18.048;2022-09-03T09:45:48;0.30;;;0.30;;
10281;SDS011;5186;59.472;18.048;2022-09-03T09:48:27;0.60;;;0.23;;
10281;SDS011;5186;59.472;18.048;2022-09-03T09:57:02;0.40;;;0.37;;
10281;SDS011;5186;59.472;18.048;2022-09-03T09:59:30;0.20;;;0.20;;
10281;SDS011;5186;59.472;18.048;2022-09-03T10:02:14;0.30;;;0.30;;
10281;SDS011;5186;59.472;18.048;2022-09-03T10:04:49;1.60;;;0.30;;
10281;SDS011;5186;59.472;18.048;2022-09-03T10:10:48;0.30;;;0.30;;
10281;SDS011;5186;59.472;18.048;2022-09-03T10:12:49;1.23;;;0.40;;
10281;SDS011;5186;59.472;18.048;2022-09-03T10:18:14;0.90;;;0.70;;
10281;SDS011;5186;59.472;18.048;2022-09-03T10:21:11;1.00;;;0.90;;
10281;SDS011;5186;59.472;18.048;2022-09-03T10:23:56;0.90;;;0.50;;
10281;SDS011;5186;59.472;18.048;2022-09-03T10:26:40;0.67;;;0.50;;
10281;SDS011;5186;59.472;18.048;2022-09-03T10:29:08;1.07;;;0.50;;
10281;SDS011;5186;59.472;18.048;2022-09-03T10:37:13;0.40;;;0.40;;
10281;SDS011;5186;59.472;18.048;2022-09-03T10:46:16;0.50;;;0.30;;
10281;SDS011;5186;59.472;18.048;2022-09-03T10:51:08;0.60;;;0.30;;
10281;SDS011;5186;59.472;18.048;2022-09-03T10:56:56;0.63;;;0.20;;
10281;SDS011;5186;59.472;18.048;2022-09-03T11:05:00;0.60;;;0.30;;
10281;SDS011;5186;59.472;18.048;2022-09-03T11:07:35;0.40;;;0.40;;
10281;SDS011;5186;59.472;18.048;2022-09-03T11:10:12;0.40;;;0.40;;
10281;SDS011;5186;59.472;18.048;2022-09-03T11:12:47;0.23;;;0.23;;
10281;SDS011;5186;59.472;18.048;2022-09-03T11:15:32;1.40;;;0.23;;
10281;SDS011;5186;59.472;18.048;2022-09-03T11:18:03;1.60;;;0.57;;
10281;SDS011;5186;59.472;18.048;2022-09-03T11:20:44;1.60;;;0.50;;
10281;SDS011;5186;59.472;18.048;2022-09-03T11:23:13;0.20;;;0.20;;
10281;SDS011;5186;59.472;18.048;2022-09-03T11:25:52;0.23;;;0.20;;
10281;SDS011;5186;59.472;18.048;2022-09-03T11:28:41;0.27;;;0.27;;
10281;SDS011;5186;59.472;18.048;2022-09-03T11:31:16;0.43;;;0.43;;
10281;SDS011;5186;59.472;18.048;2022-09-03T11:34:05;0.53;;;0.40;;
10281;SDS011;5186;59.472;18.048;2022-09-03T11:36:37;1.70;;;0.30;;
10281;SDS011;5186;59.472;18.048;2022-09-03T11:42:00;2.67;;;0.47;;
10281;SDS011;5186;59.472;18.048;2022-09-03T11:44:38;0.40;;;0.20;;
10281;SDS011;5186;59.472;18.048;2022-09-03T11:47:15;0.43;;;0.30;;
10281;SDS011;5186;59.472;18.048;2022-09-03T11:49:49;0.30;;;0.30;;
10281;SDS011;5186;59.472;18.048;2022-09-03T11:52:26;1.30;;;0.30;;
10281;SDS011;5186;59.472;18.048;2022-09-03T11:54:55;0.30;;;0.30;;
10281;SDS011;5186;59.472;18.048;2022-09-03T11:57:26;0.30;;;0.30;;
10281;SDS011;5186;59.472;18.048;2022-09-03T11:59:53;0.40;;;0.20;;
10281;SDS011;5186;59.472;18.048;2022-09-03T12:02:36;0.40;;;0.40;;
10281;SDS011;5186;59.472;18.048;2022-09-03T12:08:25;0.30;;;0.30;;
10281;SDS011;5186;59.472;18.048;2022-09-03T12:14:20;2.17;;;0.40;;
10281;SDS011;5186;59.472;18.048;2022-09-03T12:17:02;0.73;;;0.40;;
10281;SDS011;5186;59.472;18.048;2022-09-03T12:22:13;1.10;;;0.37;;
10281;SDS011;5186;59.472;18.048;2022-09-03T12:24:40;0.40;;;0.40;;
10281;SDS011;5186;59.472;18.048;2022-09-03T12:27:07;2.43;;;0.43;;
10281;SDS011;5186;59.472;18.048;2022-09-03T12:29:48;1.70;;;0.20;;
10281;SDS011;5186;59.472;18.048;2022-09-03T12:32:23;0.37;;;0.27;;
10281;SDS011;5186;59.472;18.048;2022-09-03T12:34:50;0.57;;;0.40;;
10281;SDS011;5186;59.472;18.048;2022-09-03T12:37:17;1.00;;;0.50;;
10281;SDS011;5186;59.472;18.048;2022-09-03T12:39:55;0.40;;;0.40;;
10281;SDS011;5186;59.472;18.048;2022-09-03T12:42:27;1.37;;;0.30;;
10281;SDS011;5186;59.472;18.048;2022-09-03T12:44:55;0.60;;;0.37;;
10281;SDS011;5186;59.472;18.048;2022-09-03T12:47:37;1.40;;;0.40;;
10281;SDS011;5186;59.472;18.048;2022-09-03T12:50:07;0.90;;;0.27;;
10281;SDS011;5186;59.472;18.048;2022-09-03T12:52:36;0.50;;;0.50;;
10281;SDS011;5186;59.472;18.048;2022-09-03T12:55:15;0.43;;;0.40;;
10281;SDS011;5186;59.472;18.048;2022-09-03T12:58:05;0.40;;;0.40;;
10281;SDS011;5186;59.472;18.048;2022-09-03T13:00:33;0.73;;;0.40;;
10281;SDS011;5186;59.472;18.048;2022-09-03T13:03:03;0.70;;;0.40;;
10281;SDS011;5186;59.472;18.048;2022-09-03T13:05:41;0.40;;;0.40;;
10281;SDS011;5186;59.472;18.048;2022-09-03T13:08:22;0.30;;;0.30;;
10281;SDS011;5186;59.472;18.048;2022-09-03T13:10:51;0.70;;;0.40;;
10281;SDS011;5186;59.472;18.048;2022-09-03T13:13:26;0.97;;;0.33;;
10281;SDS011;5186;59.472;18.048;2022-09-03T13:19:09;1.40;;;0.40;;
10281;SDS011;5186;59.472;18.048;2022-09-03T13:22:07;0.87;;;0.27;;
10281;SDS011;5186;59.472;18.048;2022-09-03T13:25:17;0.30;;;0.30;;
10281;SDS011;5186;59.472;18.048;2022-09-03T13:30:42;0.73;;;0.33;;
10281;SDS011;5186;59.472;18.048;2022-09-03T13:33:27;0.50;;;0.43;;
10281;SDS011;5186;59.472;18.048;2022-09-03T13:43:47;0.30;;;0.30;;
10281;SDS011;5186;59.472;18.048;2022-09-03T13:46:23;0.47;;;0.20;;
10281;SDS011;5186;59.472;18.048;2022-09-03T13:49:08;0.50;;;0.37;;
10281;SDS011;5186;59.472;18.048;2022-09-03T13:52:04;0.40;;;0.40;;
10281;SDS011;5186;59.472;18.048;2022-09-03T13:54:44;0.30;;;0.30;;
10281;SDS011;5186;59.472;18.048;2022-09-03T13:57:25;0.93;;;0.43;;
10281;SDS011;5186;59.472;18.048;2022-09-03T14:02:51;0.53;;;0.50;;
10281;SDS011;5186;59.472;18.048;2022-09-03T14:16:15;0.50;;;0.50;;
10281;SDS011;5186;59.472;18.048;2022-09-03T14:18:45;0.70;;;0.60;;
10281;SDS011;5186;59.472;18.048;2022-09-03T14:21:53;1.30;;;0.60;;
10281;SDS011;5186;59.472;18.048;2022-09-03T14:24:33;0.40;;;0.40;;
10281;SDS011;5186;59.472;18.048;2022-09-03T14:27:21;0.97;;;0.50;;
10281;SDS011;5186;59.472;18.048;2022-09-03T14:29:53;0.77;;;0.50;;
10281;SDS011;5186;59.472;18.048;2022-09-03T14:32:28;1.90;;;0.53;;
10281;SDS011;5186;59.472;18.048;2022-09-03T14:38:46;2.20;;;0.73;;
10281;SDS011;5186;59.472;18.048;2022-09-03T14:40:51;0.50;;;0.43;;
10281;SDS011;5186;59.472;18.048;2022-09-03T14:43:40;1.13;;;0.40;;
10281;SDS011;5186;59.472;18.048;2022-09-03T15:09:17;0.90;;;0.47;;
10281;SDS011;5186;59.472;18.048;2022-09-03T15:12:38;0.63;;;0.40;;
10281;SDS011;5186;59.472;18.048;2022-09-03T15:14:45;0.60;;;0.30;;
10281;SDS011;5186;59.472;18.048;2022-09-03T15:17:23;1.03;;;0.40;;
10281;SDS011;5186;59.472;18.048;2022-09-03T15:20:20;0.60;;;0.50;;
10281;SDS011;5186;59.472;18.048;2022-09-03T15:31:08;0.50;;;0.50;;
10281;SDS011;5186;59.472;18.048;2022-09-03T15:33:39;0.50;;;0.40;;
10281;SDS011;5186;59.472;18.048;2022-09-03T15:36:33;1.07;;;0.50;;
10281;SDS011;5186;59.472;18.048;2022-09-03T15:41:43;1.13;;;0.50;;
10281;SDS011;5186;59.472;18.048;2022-09-03T15:44:15;0.30;;;0.30;;
10281;SDS011;5186;59.472;18.048;2022-09-03T15:49:22;1.17;;;0.40;;
10281;SDS011;5186;59.472;18.048;2022-09-03T15:52:14;0.97;;;0.60;;
10281;SDS011;5186;59.472;18.048;2022-09-03T15:55:05;0.60;;;0.60;;
10281;SDS011;5186;59.472;18.048;2022-09-03T15:57:36;0.73;;;0.60;;
10281;SDS011;5186;59.472;18.048;2022-09-03T16:00:15;1.30;;;0.73;;
10281;SDS011;5186;59.472;18.048;2022-09-03T16:03:00;1.77;;;0.87;;
10281;SDS011;5186;59.472;18.048;2022-09-03T16:19:22;0.70;;;0.43;;
10281;SDS011;5186;59.472;18.048;2022-09-03T16:22:12;0.60;;;0.57;;
10281;SDS011;5186;59.472;18.048;2022-09-03T16:24:51;2.23;;;0.83;;
10281;SDS011;5186;59.472;18.048;2022-09-03T16:27:29;1.90;;;0.50;;
10281;SDS011;5186;59.472;18.048;2022-09-03T16:30:32;0.70;;;0.70;;
10281;SDS011;5186;59.472;18.048;2022-09-03T16:38:46;0.90;;;0.70;;
10281;SDS011;5186;59.472;18.048;2022-09-03T16:47:31;0.70;;;0.70;;
10281;SDS011;5186;59.472;18.048;2022-09-03T17:00:50;2.40;;;0.80;;
10281;SDS011;5186;59.472;18.048;2022-09-03T17:03:35;1.43;;;0.73;;
10281;SDS011;5186;59.472;18.048;2022-09-03T17:06:24;1.53;;;0.70;;
10281;SDS011;5186;59.472;18.048;2022-09-03T17:09:01;0.70;;;0.70;;
10281;SDS011;5186;59.472;18.048;2022-09-03T17:11:38;1.70;;;0.90;;
10281;SDS011;5186;59.472;18.048;2022-09-03T17:14:11;1.50;;;1.00;;
10281;SDS011;5186;59.472;18.048;2022-09-03T17:17:03;1.43;;;0.70;;
10281;SDS011;5186;59.472;18.048;2022-09-03T17:24:53;1.23;;;0.90;;
10281;SDS011;5186;59.472;18.048;2022-09-03T17:27:48;1.67;;;0.77;;
10281;SDS011;5186;59.472;18.048;2022-09-03T17:33:48;2.53;;;0.97;;
10281;SDS011;5186;59.472;18.048;2022-09-03T17:41:39;2.17;;;1.00;;
10281;SDS011;5186;59.472;18.048;2022-09-03T17:44:12;1.93;;;1.10;;
10281;SDS011;5186;59.472;18.048;2022-09-03T17:49:44;1.60;;;0.93;;
10281;SDS011;5186;59.472;18.048;2022-09-03T17:55:12;2.20;;;1.20;;
10281;SDS011;5186;59.472;18.048;2022-09-03T17:57:47;1.47;;;1.30;;
10281;SDS011;5186;59.472;18.048;2022-09-03T18:00:22;2.10;;;1.10;;
10281;SDS011;5186;59.472;18.048;2022-09-03T18:05:42;1.40;;;1.30;;
10281;SDS011;5186;59.472;18.048;2022-09-03T18:08:13;1.70;;;1.40;;
10281;SDS011;5186;59.472;18.048;2022-09-03T18:11:00;2.30;;;1.70;;
10281;SDS011;5186;59.472;18.048;2022-09-03T18:16:41;2.57;;;1.70;;
10281;SDS011;5186;59.472;18.048;2022-09-03T18:19:43;2.53;;;2.07;;
10281;SDS011;5186;59.472;18.048;2022-09-03T18:25:49;2.37;;;1.80;;
10281;SDS011;5186;59.472;18.048;2022-09-03T18:28:51;2.70;;;1.60;;
10281;SDS011;5186;59.472;18.048;2022-09-03T18:31:42;1.87;;;1.37;;
10281;SDS011;5186;59.472;18.048;2022-09-03T18:34:30;1.70;;;1.60;;
10281;SDS011;5186;59.472;18.048;2022-09-03T18:37:17;2.80;;;1.47;;
10281;SDS011;5186;59.472;18.048;2022-09-03T18:40:08;2.53;;;1.37;;
10281;SDS011;5186;59.472;18.048;2022-09-03T18:45:59;1.17;;;1.00;;
10281;SDS011;5186;59.472;18.048;2022-09-03T18:48:52;3.00;;;1.13;;
10281;SDS011;5186;59.472;18.048;2022-09-03T18:52:00;2.43;;;1.80;;
10281;SDS011;5186;59.472;18.048;2022-09-03T19:00:44;1.50;;;1.20;;
10281;SDS011;5186;59.472;18.048;2022-09-03T19:09:55;1.60;;;1.43;;
10281;SDS011;5186;59.472;18.048;2022-09-03T19:19:45;2.33;;;1.37;;
10281;SDS011;5186;59.472;18.048;2022-09-03T19:22:39;1.73;;;1.20;;
10281;SDS011;5186;59.472;18.048;2022-09-03T19:25:25;2.33;;;1.27;;
10281;SDS011;5186;59.472;18.048;2022-09-03T19:28:12;1.47;;;1.10;;
10281;SDS011;5186;59.472;18.048;2022-09-03T19:37:28;2.37;;;1.47;;
10281;SDS011;5186;59.472;18.048;2022-09-03T19:43:28;2.00;;;1.40;;
10281;SDS011;5186;59.472;18.048;2022-09-03T19:46:36;3.30;;;2.40;;
10281;SDS011;5186;59.472;18.048;2022-09-03T19:56:08;5.10;;;3.37;;
10281;SDS011;5186;59.472;18.048;2022-09-03T19:58:59;5.47;;;4.43;;
10281;SDS011;5186;59.472;18.048;2022-09-03T20:01:46;4.33;;;3.47;;
10281;SDS011;5186;59.472;18.048;2022-09-03T20:04:37;5.13;;;3.80;;
10281;SDS011;5186;59.472;18.048;2022-09-03T20:07:26;4.77;;;3.60;;
10281;SDS011;5186;59.472;18.048;2022-09-03T20:10:11;7.47;;;4.50;;
10281;SDS011;5186;59.472;18.048;2022-09-03T20:15:41;7.27;;;4.60;;
10281;SDS011;5186;59.472;18.048;2022-09-03T20:20:49;16.13;;;3.87;;
10281;SDS011;5186;59.472;18.048;2022-09-03T20:29:51;4.47;;;3.53;;
10281;SDS011;5186;59.472;18.048;2022-09-03T20:38:00;3.87;;;2.67;;
10281;SDS011;5186;59.472;18.048;2022-09-03T21:00:10;3.83;;;2.30;;
10281;SDS011;5186;59.472;18.048;2022-09-03T21:05:11;2.53;;;2.00;;
10281;SDS011;5186;59.472;18.048;2022-09-03T21:24:14;3.07;;;2.77;;
10281;SDS011;5186;59.472;18.048;2022-09-03T21:26:50;4.23;;;2.73;;
10281;SDS011;5186;59.472;18.048;2022-09-03T21:29:36;2.70;;;2.50;;